Time;durP1;ratioP1;P1;durP2;ratioP2;P2;SDS_P1;SDS_P2;PMS_P1;PMS_P2;Temp;Humidity;BMP_temperature;BMP_pressure;BME280_temperature;BME280_humidity;BME280_pressure;Samples;Min_cycle;Max_cycle;Signal;HPM_P1;HPM_P2
2023/09/27 00:02:59;;;;;;;12.20;8.50;;;8.10;99.90;;;;;;8375583;28;20024;-79
2023/09/27 00:07:00;;;;;;;12.32;7.80;;;8.10;99.90;;;;;;8399103;28;20027;-77
2023/09/27 00:11:01;;;;;;;15.68;7.93;;;8.00;99.90;;;;;;8380137;28;20087;-78
2023/09/27 00:15:04;;;;;;;13.27;8.23;;;7.90;99.90;;;;;;8397516;28;20038;-78
2023/09/27 00:19:05;;;;;;;11.93;9.00;;;7.80;99.90;;;;;;8380007;28;20036;-77
2023/09/27 00:23:07;;;;;;;14.90;9.23;;;7.80;99.90;;;;;;8398464;28;20017;-79
2023/09/27 00:27:10;;;;;;;13.45;9.65;;;7.80;99.90;;;;;;8374040;28;20330;-78
2023/09/27 00:31:13;;;;;;;13.05;9.25;;;7.80;99.90;;;;;;8378821;28;20039;-78
2023/09/27 00:35:21;;;;;;;15.82;9.20;;;7.80;99.90;;;;;;8367023;28;20025;-77
2023/09/27 00:39:22;;;;;;;16.15;9.38;;;7.70;99.90;;;;;;8392481;28;20017;-78
2023/09/27 00:43:31;;;;;;;20.95;13.35;;;7.70;99.90;;;;;;8368929;28;20020;-78
2023/09/27 00:47:32;;;;;;;23.88;12.95;;;7.70;99.90;;;;;;8379820;28;20476;-78
2023/09/27 00:51:34;;;;;;;19.42;12.18;;;7.80;99.90;;;;;;8397205;28;20028;-78
2023/09/27 00:55:35;;;;;;;20.00;12.57;;;7.70;99.90;;;;;;8378860;28;20032;-78
2023/09/27 00:59:37;;;;;;;22.80;12.43;;;7.60;99.90;;;;;;8375167;28;20055;-78
2023/09/27 01:03:37;;;;;;;23.63;13.55;;;7.50;99.90;;;;;;8378052;28;20070;-78
2023/09/27 01:07:38;;;;;;;24.75;13.32;;;7.40;99.90;;;;;;8395781;28;20082;-78
2023/09/27 01:11:39;;;;;;;20.73;12.45;;;7.50;99.90;;;;;;8374003;28;20024;-77
2023/09/27 01:15:39;;;;;;;17.55;12.00;;;7.70;99.90;;;;;;8375370;28;20531;-78
2023/09/27 01:19:40;;;;;;;16.13;11.63;;;7.80;99.90;;;;;;8378204;28;20024;-78
2023/09/27 01:23:41;;;;;;;13.55;9.18;;;7.70;99.90;;;;;;8395799;28;20040;-78
2023/09/27 01:27:42;;;;;;;22.77;12.90;;;7.70;99.90;;;;;;8377427;28;20438;-78
2023/09/27 01:31:43;;;;;;;23.25;13.50;;;7.50;99.90;;;;;;8376330;28;20458;-78
2023/09/27 01:35:44;;;;;;;22.17;14.07;;;7.50;99.90;;;;;;8374989;28;20029;-77
2023/09/27 01:39:45;;;;;;;16.58;11.35;;;7.50;99.90;;;;;;8394481;28;20052;-78
2023/09/27 01:43:46;;;;;;;19.65;12.27;;;7.40;99.90;;;;;;8374784;28;20504;-78
2023/09/27 01:47:46;;;;;;;21.48;12.98;;;7.20;99.90;;;;;;8369928;28;20404;-79
2023/09/27 01:51:49;;;;;;;23.52;13.40;;;7.10;99.90;;;;;;8375486;28;20024;-78
2023/09/27 01:55:49;;;;;;;23.75;13.50;;;7.00;99.90;;;;;;8376041;28;20051;-78
2023/09/27 01:59:50;;;;;;;24.83;14.82;;;6.90;99.90;;;;;;8395551;28;20032;-77
2023/09/27 02:03:50;;;;;;;22.75;14.15;;;6.80;99.90;;;;;;8376696;28;20075;-78
2023/09/27 02:07:51;;;;;;;35.92;17.98;;;6.90;99.90;;;;;;8374840;28;20113;-79
2023/09/27 02:11:52;;;;;;;33.63;17.95;;;7.00;99.90;;;;;;8393669;28;20651;-78
2023/09/27 02:15:54;;;;;;;29.77;16.23;;;7.10;99.90;;;;;;8394323;28;20024;-78
2023/09/27 02:20:39;;;;;;;31.33;17.00;;;7.30;99.90;;;;;;8375830;28;20054;-78
2023/09/27 02:24:41;;;;;;;25.83;15.73;;;7.40;99.90;;;;;;8364854;28;20020;-78
2023/09/27 02:28:43;;;;;;;24.92;15.35;;;7.30;99.90;;;;;;8375195;28;20516;-78
2023/09/27 02:32:45;;;;;;;28.13;15.65;;;7.10;99.90;;;;;;8374432;28;20097;-77
2023/09/27 02:36:48;;;;;;;25.00;15.05;;;7.00;99.90;;;;;;8375698;28;20074;-78
2023/09/27 02:40:49;;;;;;;24.50;14.48;;;6.80;99.90;;;;;;8373278;28;20508;-78
2023/09/27 02:44:50;;;;;;;23.50;14.30;;;6.60;99.90;;;;;;8392858;28;20029;-78
2023/09/27 02:48:51;;;;;;;31.58;15.73;;;6.60;99.90;;;;;;8374558;28;20058;-78
2023/09/27 02:52:51;;;;;;;27.83;15.35;;;6.70;99.90;;;;;;8394216;28;20021;-78
2023/09/27 02:56:52;;;;;;;27.38;14.93;;;6.80;99.90;;;;;;8393590;28;20028;-78
2023/09/27 03:00:53;;;;;;;24.15;12.82;;;6.80;99.90;;;;;;8374734;28;20017;-79
2023/09/27 03:04:53;;;;;;;25.83;15.30;;;6.80;99.90;;;;;;8375474;28;20037;-77
2023/09/27 03:08:54;;;;;;;26.88;15.10;;;6.80;99.90;;;;;;8374714;28;20488;-77
2023/09/27 03:12:55;;;;;;;23.10;12.60;;;6.70;99.90;;;;;;8369844;28;20028;-77
2023/09/27 03:16:56;;;;;;;24.63;13.50;;;6.70;99.90;;;;;;8375578;28;20025;-78
2023/09/27 03:20:58;;;;;;;21.95;11.88;;;6.60;99.90;;;;;;8375735;28;20109;-78
2023/09/27 03:25:00;;;;;;;16.92;9.63;;;6.50;99.90;;;;;;8379180;28;20707;-78
2023/09/27 03:29:00;;;;;;;17.33;9.25;;;6.40;99.90;;;;;;8380258;28;20029;-79
2023/09/27 03:33:01;;;;;;;13.40;7.65;;;6.30;99.90;;;;;;8400904;28;20276;-78
2023/09/27 03:37:01;;;;;;;13.27;7.50;;;6.20;99.90;;;;;;8396853;28;20095;-78
2023/09/27 03:41:07;;;;;;;13.52;7.00;;;6.10;99.90;;;;;;8405883;28;20511;-78
2023/09/27 03:45:08;;;;;;;11.68;7.15;;;6.00;99.90;;;;;;8395403;28;20051;-76
2023/09/27 03:49:10;;;;;;;11.02;6.75;;;6.00;99.90;;;;;;8384417;28;20032;-76
2023/09/27 03:53:11;;;;;;;12.15;7.82;;;6.00;99.90;;;;;;8379060;28;20025;-78
2023/09/27 03:57:11;;;;;;;14.85;7.38;;;6.20;99.90;;;;;;8379199;28;20094;-78
2023/09/27 04:01:12;;;;;;;14.18;7.85;;;6.20;99.90;;;;;;8376775;28;20017;-78
2023/09/27 04:05:14;;;;;;;11.50;6.68;;;6.20;99.90;;;;;;8379273;28;20115;-78
2023/09/27 04:09:15;;;;;;;13.85;7.63;;;6.10;99.90;;;;;;8374816;28;20083;-77
2023/09/27 04:13:18;;;;;;;14.05;8.43;;;6.10;99.90;;;;;;8368816;28;20025;-78
2023/09/27 04:17:19;;;;;;;14.07;7.72;;;6.30;99.90;;;;;;8384482;28;20661;-77
2023/09/27 04:21:19;;;;;;;11.70;7.38;;;6.40;99.90;;;;;;8371221;28;20021;-78
2023/09/27 04:25:20;;;;;;;11.32;7.10;;;6.50;99.90;;;;;;8368910;28;20573;-77
2023/09/27 04:29:21;;;;;;;11.80;7.07;;;6.40;99.90;;;;;;8393040;28;20039;-78
2023/09/27 04:33:21;;;;;;;12.30;7.63;;;6.30;99.90;;;;;;8373225;28;20027;-79
2023/09/27 04:37:22;;;;;;;16.08;8.38;;;6.50;99.90;;;;;;8396246;28;20072;-79
2023/09/27 04:41:23;;;;;;;13.07;7.78;;;6.50;99.90;;;;;;8378505;28;20024;-79
2023/09/27 04:45:23;;;;;;;13.55;7.82;;;6.40;99.90;;;;;;8373371;28;20033;-78
2023/09/27 04:49:24;;;;;;;12.73;7.80;;;6.30;99.90;;;;;;8372623;28;20672;-78
2023/09/27 04:53:24;;;;;;;11.80;6.55;;;6.20;99.90;;;;;;8373649;28;20584;-79
2023/09/27 04:57:25;;;;;;;10.20;6.97;;;6.10;99.90;;;;;;8395609;28;20034;-78
2023/09/27 05:01:26;;;;;;;9.55;6.45;;;6.00;99.90;;;;;;8377113;28;20029;-78
2023/09/27 05:05:26;;;;;;;10.27;6.65;;;6.00;99.90;;;;;;8368649;28;20051;-79
2023/09/27 05:09:27;;;;;;;12.40;6.53;;;5.90;99.90;;;;;;8395702;28;20029;-79
2023/09/27 05:13:27;;;;;;;14.52;7.82;;;6.00;99.90;;;;;;8372609;28;20017;-78
2023/09/27 05:17:28;;;;;;;19.08;10.52;;;6.00;99.90;;;;;;8395207;28;20100;-78
2023/09/27 05:21:28;;;;;;;23.33;14.52;;;6.00;99.90;;;;;;8373057;28;20021;-78
2023/09/27 05:25:29;;;;;;;23.13;14.80;;;5.90;99.90;;;;;;8395777;28;20105;-78
2023/09/27 05:29:30;;;;;;;18.33;12.18;;;6.00;99.90;;;;;;8371042;28;20028;-79
2023/09/27 05:33:30;;;;;;;16.33;10.05;;;6.00;99.90;;;;;;8377879;28;20098;-78
2023/09/27 05:37:31;;;;;;;13.45;8.50;;;6.20;99.90;;;;;;8373189;28;20442;-78
2023/09/27 05:41:32;;;;;;;15.98;10.13;;;6.40;99.90;;;;;;8395269;28;20025;-78
2023/09/27 05:45:32;;;;;;;14.32;8.25;;;6.90;99.90;;;;;;8394498;28;20017;-78
2023/09/27 05:49:34;;;;;;;13.68;8.68;;;7.00;99.90;;;;;;8376339;28;20024;-79
2023/09/27 05:53:34;;;;;;;17.25;9.35;;;7.00;99.90;;;;;;8371903;28;20131;-78
2023/09/27 05:57:35;;;;;;;13.50;9.02;;;6.90;99.90;;;;;;8394339;28;20020;-79
2023/09/27 06:01:36;;;;;;;13.65;9.05;;;7.30;99.90;;;;;;8373488;28;20019;-78
2023/09/27 06:05:36;;;;;;;15.70;10.00;;;7.50;99.90;;;;;;8367654;28;20020;-78
2023/09/27 06:09:37;;;;;;;13.88;8.98;;;7.30;99.90;;;;;;8394612;28;20035;-77
2023/09/27 06:13:37;;;;;;;13.25;8.93;;;7.30;99.90;;;;;;8394267;28;20040;-78
2023/09/27 06:17:38;;;;;;;15.93;10.00;;;7.40;99.90;;;;;;8394133;28;20392;-77
2023/09/27 06:21:39;;;;;;;20.13;10.73;;;7.60;99.90;;;;;;8394408;28;20051;-78
2023/09/27 06:25:43;;;;;;;14.98;10.15;;;7.80;99.90;;;;;;8372691;28;20020;-78
2023/09/27 06:29:44;;;;;;;16.73;9.80;;;7.80;99.90;;;;;;8373170;28;20028;-79
2023/09/27 06:33:46;;;;;;;14.73;9.35;;;8.00;99.90;;;;;;8373994;28;20127;-79
2023/09/27 06:37:50;;;;;;;15.63;9.32;;;7.90;99.90;;;;;;8393824;28;20461;-79
2023/09/27 06:41:52;;;;;;;11.88;8.30;;;8.20;99.90;;;;;;8375683;28;20020;-78
2023/09/27 06:45:52;;;;;;;17.02;9.65;;;8.50;99.90;;;;;;8393410;28;20495;-78
2023/09/27 06:49:55;;;;;;;14.38;10.05;;;8.70;99.90;;;;;;8373873;28;20036;-79
2023/09/27 06:53:55;;;;;;;13.90;9.35;;;8.70;99.90;;;;;;8375391;28;20042;-78
2023/09/27 06:57:56;;;;;;;10.30;7.65;;;8.80;99.90;;;;;;8375915;28;20077;-78
2023/09/27 07:01:57;;;;;;;15.85;10.00;;;9.00;99.90;;;;;;8382114;28;20027;-78
2023/09/27 07:05:57;;;;;;;15.45;9.52;;;9.20;99.90;;;;;;8381186;28;20067;-78
2023/09/27 07:09:58;;;;;;;15.32;9.27;;;9.40;99.90;;;;;;8380891;28;20055;-77
2023/09/27 07:13:59;;;;;;;15.30;9.32;;;9.50;99.90;;;;;;8381125;28;20448;-79
2023/09/27 07:17:59;;;;;;;17.30;9.95;;;9.70;99.90;;;;;;8384213;28;20438;-78
2023/09/27 07:22:01;;;;;;;15.48;10.27;;;10.00;99.90;;;;;;8381094;28;20020;-78
2023/09/27 07:26:04;;;;;;;15.05;10.57;;;10.20;99.90;;;;;;8386662;28;20012;-78
2023/09/27 07:30:09;;;;;;;15.73;10.40;;;10.30;99.90;;;;;;8380107;28;20035;-78
2023/09/27 07:34:09;;;;;;;15.63;10.50;;;10.50;99.90;;;;;;8371694;28;20056;-77
2023/09/27 07:38:13;;;;;;;15.93;10.05;;;10.70;99.90;;;;;;8369039;28;20029;-78
2023/09/27 07:42:14;;;;;;;13.77;9.48;;;10.80;99.90;;;;;;8373086;28;20021;-79
2023/09/27 07:46:17;;;;;;;14.38;9.73;;;11.10;99.90;;;;;;8389625;28;20028;-78
2023/09/27 07:50:22;;;;;;;14.63;10.07;;;11.40;99.90;;;;;;8376514;28;20059;-79
2023/09/27 07:54:24;;;;;;;14.60;9.98;;;11.60;99.90;;;;;;8382815;28;20033;-79
2023/09/27 07:58:24;;;;;;;12.27;9.48;;;12.00;99.90;;;;;;8369784;28;20158;-79
2023/09/27 08:02:26;;;;;;;14.57;9.40;;;12.30;99.90;;;;;;8366588;28;20555;-78
2023/09/27 08:06:26;;;;;;;11.80;7.95;;;12.50;99.90;;;;;;8388273;28;20055;-79
2023/09/27 08:10:29;;;;;;;10.57;7.68;;;12.70;99.90;;;;;;8392644;28;20516;-78
2023/09/27 08:14:29;;;;;;;10.40;7.57;;;12.70;99.90;;;;;;8372765;28;20027;-79
2023/09/27 08:18:30;;;;;;;11.70;8.50;;;13.10;99.90;;;;;;8368241;28;20024;-78
2023/09/27 08:22:33;;;;;;;8.85;7.20;;;13.30;99.90;;;;;;8379937;28;20137;-80
2023/09/27 08:26:34;;;;;;;9.10;7.10;;;13.50;99.90;;;;;;8387517;28;20024;-78
2023/09/27 08:30:35;;;;;;;10.18;7.05;;;13.80;99.90;;;;;;8419865;28;20581;-80
2023/09/27 08:34:36;;;;;;;8.65;6.65;;;14.10;99.90;;;;;;8373822;28;20021;-80
2023/09/27 08:38:36;;;;;;;9.65;7.10;;;14.30;99.90;;;;;;8374326;28;20158;-80
2023/09/27 08:42:37;;;;;;;10.52;6.55;;;14.50;99.90;;;;;;8391134;28;20028;-80
2023/09/27 08:46:39;;;;;;;8.13;6.45;;;14.90;99.90;;;;;;8372868;28;20033;-80
2023/09/27 08:50:40;;;;;;;7.78;6.05;;;15.20;99.90;;;;;;8391707;28;20025;-80
2023/09/27 08:54:41;;;;;;;7.90;6.03;;;15.60;99.90;;;;;;8376086;28;20032;-80
2023/09/27 08:58:45;;;;;;;7.18;5.70;;;16.00;99.90;;;;;;8370138;28;20032;-80
2023/09/27 09:03:00;;;;;;;7.03;5.55;;;16.30;99.90;;;;;;8373140;28;20081;-80
2023/09/27 09:07:06;;;;;;;7.30;5.50;;;16.80;99.90;;;;;;8379405;28;20028;-81
2023/09/27 09:11:10;;;;;;;6.03;5.03;;;16.80;99.90;;;;;;8392449;28;20122;-80
2023/09/27 09:15:26;;;;;;;8.18;4.90;;;17.20;99.90;;;;;;8380281;28;20021;-80
2023/09/27 09:19:27;;;;;;;7.57;5.18;;;17.60;99.90;;;;;;8370769;28;20623;-80
2023/09/27 09:23:33;;;;;;;6.05;4.90;;;18.00;99.90;;;;;;8380071;28;20043;-80
2023/09/27 09:27:34;;;;;;;6.72;5.18;;;18.40;99.90;;;;;;8397493;28;20025;-81
2023/09/27 09:31:34;;;;;;;5.05;4.35;;;18.90;99.90;;;;;;8399478;28;20068;-80
2023/09/27 09:35:36;;;;;;;6.60;4.72;;;19.30;99.90;;;;;;8370685;28;20029;-79
2023/09/27 09:39:37;;;;;;;5.85;4.55;;;19.90;99.90;;;;;;8372668;28;20104;-80
2023/09/27 09:43:38;;;;;;;6.50;3.90;;;20.50;99.90;;;;;;8385917;28;20040;-80
2023/09/27 09:47:41;;;;;;;6.30;3.70;;;20.90;99.90;;;;;;8372199;28;20032;-81
2023/09/27 09:51:48;;;;;;;5.50;3.92;;;21.00;99.90;;;;;;8372702;28;20397;-81
2023/09/27 09:55:51;;;;;;;5.68;3.55;;;21.50;99.90;;;;;;8375472;28;20028;-80
2023/09/27 10:00:14;;;;;;;5.00;3.72;;;21.80;99.90;;;;;;8374940;28;20028;-80
2023/09/27 10:04:16;;;;;;;5.57;2.90;;;22.20;99.90;;;;;;8377846;28;20055;-81
2023/09/27 10:08:18;;;;;;;4.38;2.78;;;22.90;99.90;;;;;;8378479;28;20028;-81
2023/09/27 10:12:23;;;;;;;4.30;3.03;;;24.00;99.90;;;;;;8377021;28;20021;-81
2023/09/27 10:16:24;;;;;;;3.30;2.55;;;24.50;99.90;;;;;;8378554;28;20024;-81
2023/09/27 10:20:25;;;;;;;3.40;2.42;;;24.30;99.90;;;;;;8395656;28;20496;-81
2023/09/27 10:24:26;;;;;;;2.67;2.33;;;23.60;99.90;;;;;;8371209;28;20033;-81
2023/09/27 10:28:28;;;;;;;2.65;2.00;;;23.20;99.90;;;;;;8367206;28;20039;-81
2023/09/27 10:32:28;;;;;;;3.67;2.22;;;22.70;99.90;;;;;;8374908;28;20515;-81
2023/09/27 10:36:30;;;;;;;3.45;2.17;;;22.90;99.90;;;;;;8377610;28;20098;-81
2023/09/27 10:40:42;;;;;;;3.75;1.90;;;23.30;99.90;;;;;;8395839;28;20496;-82
2023/09/27 10:44:43;;;;;;;2.42;2.00;;;23.50;99.90;;;;;;8395614;28;20024;-80
2023/09/27 10:48:55;;;;;;;3.45;2.08;;;23.70;99.90;;;;;;8374293;28;20040;-81
2023/09/27 10:52:56;;;;;;;3.95;2.08;;;24.50;99.90;;;;;;8375642;28;20028;-80
2023/09/27 10:56:56;;;;;;;2.40;1.98;;;24.90;99.90;;;;;;8376994;28;20029;-81
2023/09/27 11:01:01;;;;;;;2.75;2.05;;;25.20;99.90;;;;;;8374834;28;20035;-79
2023/09/27 11:05:01;;;;;;;3.25;2.42;;;25.70;99.90;;;;;;8376756;28;20026;-81
2023/09/27 11:09:12;;;;;;;4.05;2.70;;;25.70;99.90;;;;;;8372760;28;20033;-80
2023/09/27 11:13:13;;;;;;;5.15;2.72;;;26.00;99.90;;;;;;8374074;28;20044;-81
2023/09/27 11:17:23;;;;;;;3.33;2.30;;;27.10;99.90;;;;;;8373172;28;20659;-82
2023/09/27 11:21:25;;;;;;;3.67;2.47;;;27.50;99.90;;;;;;8378337;28;20021;-82
2023/09/27 11:25:33;;;;;;;5.40;3.03;;;28.20;99.90;;;;;;8376950;28;20024;-82
2023/09/27 11:29:34;;;;;;;3.25;2.40;;;27.90;99.90;;;;;;8391733;28;20020;-82
2023/09/27 11:33:37;;;;;;;5.63;2.50;;;27.80;99.90;;;;;;8374081;28;20027;-81
2023/09/27 11:37:39;;;;;;;2.95;2.17;;;28.20;99.90;;;;;;8376987;28;20509;-82
2023/09/27 11:41:40;;;;;;;2.50;1.90;;;28.30;99.90;;;;;;8396012;28;20043;-81
2023/09/27 11:45:45;;;;;;;5.28;1.92;;;29.60;99.20;;;;;;8377925;28;20028;-82
2023/09/27 11:49:48;;;;;;;2.65;2.00;;;30.70;97.30;;;;;;8381927;28;20495;-82
2023/09/27 11:53:49;;;;;;;2.80;1.75;;;31.40;93.00;;;;;;8379273;28;20020;-82
2023/09/27 11:57:50;;;;;;;3.67;2.40;;;31.60;93.30;;;;;;8384763;28;20040;-80
2023/09/27 12:01:59;;;;;;;3.75;2.42;;;31.20;93.00;;;;;;8399619;28;20031;-82
2023/09/27 12:05:59;;;;;;;3.85;2.10;;;31.50;91.40;;;;;;8382662;28;20029;-80
2023/09/27 12:10:00;;;;;;;4.20;1.90;;;31.10;90.70;;;;;;8398884;28;20063;-81
2023/09/27 12:14:01;;;;;;;2.55;1.90;;;31.40;90.20;;;;;;8400028;28;20016;-81
2023/09/27 12:18:02;;;;;;;2.08;1.67;;;31.90;90.60;;;;;;8383112;28;20016;-80
2023/09/27 12:22:03;;;;;;;2.97;1.60;;;33.10;82.90;;;;;;8381937;28;20030;-82
2023/09/27 12:26:03;;;;;;;1.90;1.40;;;32.70;83.90;;;;;;8377742;28;20026;-82
2023/09/27 12:30:05;;;;;;;2.28;1.50;;;32.70;78.80;;;;;;8379832;28;20476;-79
2023/09/27 12:34:05;;;;;;;2.53;1.80;;;31.10;80.80;;;;;;8380436;28;20035;-82
2023/09/27 12:38:07;;;;;;;2.22;1.52;;;32.30;75.80;;;;;;8380799;28;20033;-82
2023/09/27 12:42:07;;;;;;;2.45;1.60;;;32.90;75.10;;;;;;8380195;28;20104;-82
2023/09/27 12:46:09;;;;;;;3.20;1.60;;;32.30;76.50;;;;;;8395217;28;20020;-80
2023/09/27 12:50:09;;;;;;;2.13;1.58;;;32.70;73.80;;;;;;8397894;28;20103;-82
2023/09/27 12:54:11;;;;;;;3.28;2.00;;;33.40;72.00;;;;;;8377956;28;20028;-82
2023/09/27 12:58:13;;;;;;;1.63;1.52;;;33.40;73.00;;;;;;8377462;28;20017;-82
2023/09/27 13:02:13;;;;;;;2.35;1.60;;;34.50;67.90;;;;;;8374117;28;20052;-82
2023/09/27 13:06:14;;;;;;;2.13;1.50;;;33.30;67.90;;;;;;8385141;28;20030;-81
2023/09/27 13:10:14;;;;;;;2.38;1.80;;;34.10;66.40;;;;;;8398796;28;20029;-82
2023/09/27 13:14:15;;;;;;;2.75;1.30;;;34.50;61.30;;;;;;8385126;28;20017;-81
2023/09/27 13:18:15;;;;;;;2.55;1.70;;;33.90;65.00;;;;;;8381367;28;20488;-82
2023/09/27 13:22:17;;;;;;;2.15;1.60;;;33.30;65.90;;;;;;8382682;28;20012;-82
2023/09/27 13:26:18;;;;;;;2.17;1.70;;;34.60;64.90;;;;;;8380618;28;20016;-82
2023/09/27 13:30:19;;;;;;;2.42;1.52;;;33.50;67.90;;;;;;8381337;28;20085;-82
2023/09/27 13:34:19;;;;;;;2.85;1.70;;;32.10;70.20;;;;;;8379152;28;20488;-81
2023/09/27 13:38:20;;;;;;;2.83;1.88;;;32.30;69.60;;;;;;8379553;28;20031;-82
2023/09/27 13:42:20;;;;;;;2.30;1.60;;;31.90;71.30;;;;;;8381111;28;20098;-82
2023/09/27 13:46:21;;;;;;;2.28;1.70;;;32.50;70.00;;;;;;8398476;28;20081;-82
2023/09/27 13:50:22;;;;;;;2.63;1.80;;;33.50;67.30;;;;;;8381510;28;20023;-82
2023/09/27 13:54:22;;;;;;;2.75;1.90;;;34.40;65.20;;;;;;8382903;28;20021;-82
2023/09/27 13:58:23;;;;;;;2.65;1.73;;;35.60;61.10;;;;;;8382293;28;20531;-82
2023/09/27 14:02:23;;;;;;;3.25;2.00;;;35.00;64.60;;;;;;8379358;28;20081;-81
2023/09/27 14:06:25;;;;;;;3.25;1.85;;;34.70;63.60;;;;;;8381655;28;20481;-82
2023/09/27 14:10:25;;;;;;;2.65;1.50;;;32.70;68.40;;;;;;8379384;28;20145;-82
2023/09/27 14:14:26;;;;;;;2.08;1.80;;;32.00;74.60;;;;;;8380255;28;20149;-82
2023/09/27 14:18:27;;;;;;;4.82;2.03;;;32.30;72.60;;;;;;8380998;28;20027;-81
2023/09/27 14:22:27;;;;;;;2.17;1.63;;;31.60;72.90;;;;;;8379864;28;20009;-82
2023/09/27 14:26:28;;;;;;;4.60;2.20;;;32.10;72.70;;;;;;8380925;28;20396;-80
2023/09/27 14:30:29;;;;;;;2.45;1.60;;;31.20;74.40;;;;;;8372897;28;20040;-82
2023/09/27 14:34:35;;;;;;;2.85;1.90;;;30.30;73.60;;;;;;8375915;28;20037;-82
2023/09/27 14:38:36;;;;;;;3.28;1.58;;;29.50;70.50;;;;;;8372360;28;20062;-82
2023/09/27 14:42:37;;;;;;;3.42;1.58;;;29.20;73.60;;;;;;8367186;28;20013;-81
2023/09/27 14:46:38;;;;;;;2.53;1.90;;;28.00;77.00;;;;;;8390906;28;20123;-82
2023/09/27 14:50:38;;;;;;;2.92;2.10;;;27.40;80.40;;;;;;8369729;28;20503;-82
2023/09/27 14:54:39;;;;;;;3.95;1.95;;;27.00;86.10;;;;;;8366954;28;20043;-82
2023/09/27 14:58:40;;;;;;;2.45;1.70;;;26.40;90.00;;;;;;8371717;28;20032;-81
2023/09/27 15:02:42;;;;;;;2.08;1.83;;;25.70;90.30;;;;;;8372144;28;20082;-82
2023/09/27 15:06:43;;;;;;;2.33;1.50;;;24.60;92.00;;;;;;8377894;28;20021;-81
2023/09/27 15:10:43;;;;;;;2.28;1.65;;;23.70;93.70;;;;;;8378345;28;20123;-81
2023/09/27 15:14:44;;;;;;;2.95;1.90;;;23.00;96.40;;;;;;8371290;28;20059;-82
2023/09/27 15:18:49;;;;;;;2.95;2.28;;;22.70;96.20;;;;;;8389689;28;20078;-82
2023/09/27 15:22:50;;;;;;;2.85;2.03;;;22.30;98.80;;;;;;8376525;28;20056;-82
2023/09/27 15:26:52;;;;;;;3.53;2.08;;;22.20;99.90;;;;;;8389396;28;20025;-82
2023/09/27 15:30:53;;;;;;;4.93;1.80;;;22.10;99.90;;;;;;8371027;28;20110;-79
2023/09/27 15:34:54;;;;;;;8.38;2.47;;;22.10;99.80;;;;;;8392365;28;20492;-81
2023/09/27 15:38:54;;;;;;;2.72;1.75;;;22.00;99.90;;;;;;8388666;28;20145;-81
2023/09/27 15:42:57;;;;;;;3.25;1.98;;;21.70;99.90;;;;;;8363822;28;20499;-82
2023/09/27 15:46:57;;;;;;;8.88;2.63;;;21.30;99.90;;;;;;8385558;28;20016;-80
2023/09/27 15:51:03;;;;;;;6.70;2.28;;;21.10;99.90;;;;;;8372150;28;20032;-80
2023/09/27 15:55:06;;;;;;;3.42;2.00;;;20.90;99.90;;;;;;8370993;28;20098;-80
2023/09/27 15:59:08;;;;;;;2.03;1.48;;;20.60;99.90;;;;;;8378138;28;20028;-81
2023/09/27 16:03:08;;;;;;;2.20;1.50;;;20.60;99.90;;;;;;8396622;28;20016;-81
2023/09/27 16:07:09;;;;;;;4.72;2.55;;;20.50;99.90;;;;;;8381519;28;20020;-81
2023/09/27 16:11:10;;;;;;;2.25;1.65;;;20.60;99.90;;;;;;8381016;28;20024;-81
2023/09/27 16:15:10;;;;;;;3.88;2.00;;;20.30;99.90;;;;;;8397225;28;20056;-81
2023/09/27 16:19:11;;;;;;;3.35;2.00;;;20.00;99.90;;;;;;8399883;28;20427;-80
2023/09/27 16:23:12;;;;;;;2.08;1.88;;;19.70;99.90;;;;;;8398703;28;20046;-81
2023/09/27 16:27:12;;;;;;;2.28;1.90;;;19.50;99.90;;;;;;8396942;28;20163;-80
2023/09/27 16:31:13;;;;;;;18.00;3.55;;;19.20;99.90;;;;;;8374783;28;20504;-81
2023/09/27 16:35:13;;;;;;;11.82;2.97;;;18.90;99.90;;;;;;8379068;28;20012;-81
2023/09/27 16:39:14;;;;;;;3.13;1.98;;;18.60;99.90;;;;;;8396345;28;20449;-80
2023/09/27 16:43:16;;;;;;;2.65;1.80;;;18.40;99.90;;;;;;8397658;28;20020;-79
2023/09/27 16:47:17;;;;;;;3.28;1.83;;;18.20;99.90;;;;;;8379523;28;20552;-81
2023/09/27 16:51:17;;;;;;;2.83;1.83;;;18.00;99.90;;;;;;8379283;28;20042;-81
2023/09/27 16:55:18;;;;;;;2.97;2.20;;;17.80;99.90;;;;;;8379698;28;20459;-81
2023/09/27 16:59:19;;;;;;;3.92;2.00;;;17.40;99.90;;;;;;8397103;28;20087;-80
2023/09/27 17:03:19;;;;;;;2.10;1.67;;;17.20;99.90;;;;;;8396290;28;20382;-81
2023/09/27 17:07:20;;;;;;;3.22;1.70;;;17.20;99.90;;;;;;8377757;28;20108;-81
2023/09/27 17:11:25;;;;;;;2.53;2.00;;;17.60;99.90;;;;;;8376365;28;20136;-79
2023/09/27 17:15:25;;;;;;;2.05;1.80;;;17.80;99.90;;;;;;8377767;28;20496;-81
2023/09/27 17:19:27;;;;;;;4.30;1.88;;;17.50;99.90;;;;;;8395862;28;20017;-80
2023/09/27 17:23:27;;;;;;;3.28;2.35;;;17.20;99.90;;;;;;8396272;28;20012;-81
2023/09/27 17:27:28;;;;;;;2.97;1.85;;;16.80;99.90;;;;;;8380368;28;20044;-81
2023/09/27 17:31:28;;;;;;;1.83;1.65;;;16.50;99.90;;;;;;8380510;28;20016;-81
2023/09/27 17:35:29;;;;;;;3.63;1.90;;;15.90;99.90;;;;;;8398718;28;20025;-80
2023/09/27 17:39:30;;;;;;;5.45;2.20;;;15.70;99.90;;;;;;8405820;28;20083;-79
2023/09/27 17:43:33;;;;;;;4.10;2.83;;;15.60;99.90;;;;;;8396685;28;21086;-80
2023/09/27 17:47:37;;;;;;;6.85;3.20;;;15.40;99.90;;;;;;8402166;28;20025;-80
2023/09/27 17:51:38;;;;;;;5.30;2.97;;;15.20;99.90;;;;;;8368495;28;20039;-80
2023/09/27 17:55:39;;;;;;;9.27;2.60;;;15.40;99.90;;;;;;8377121;28;20020;-81
2023/09/27 17:59:41;;;;;;;4.18;2.30;;;15.40;99.90;;;;;;8377593;28;20067;-81
2023/09/27 18:03:42;;;;;;;5.07;2.40;;;15.40;99.90;;;;;;8397622;28;20099;-81
2023/09/27 18:07:43;;;;;;;3.60;2.50;;;15.10;99.90;;;;;;8373173;28;20028;-81
2023/09/27 18:11:43;;;;;;;3.35;2.50;;;14.90;99.90;;;;;;8377763;28;20105;-81
2023/09/27 18:15:44;;;;;;;6.05;2.78;;;14.50;99.90;;;;;;8381202;28;20458;-81
2023/09/27 18:19:44;;;;;;;6.10;2.85;;;14.20;99.90;;;;;;8393740;28;20048;-81
2023/09/27 18:23:48;;;;;;;4.25;2.80;;;14.10;99.90;;;;;;8404340;28;20032;-81
2023/09/27 18:27:48;;;;;;;13.85;3.67;;;14.00;99.90;;;;;;8366635;28;20177;-80
2023/09/27 18:31:49;;;;;;;7.68;3.45;;;14.00;99.90;;;;;;8373221;28;20020;-81
2023/09/27 18:35:49;;;;;;;8.02;3.55;;;14.10;99.90;;;;;;8397849;28;20032;-81
2023/09/27 18:39:51;;;;;;;9.88;3.25;;;13.90;99.90;;;;;;8371683;28;20028;-79
2023/09/27 18:43:51;;;;;;;6.93;3.30;;;13.80;99.90;;;;;;8400514;28;20017;-81
2023/09/27 18:47:52;;;;;;;7.47;3.15;;;13.70;99.90;;;;;;8370609;28;20120;-81
2023/09/27 18:51:53;;;;;;;5.43;2.97;;;13.80;99.90;;;;;;8367510;28;20043;-80
2023/09/27 18:55:55;;;;;;;4.85;2.80;;;13.70;99.90;;;;;;8375849;28;20032;-80
2023/09/27 18:59:56;;;;;;;7.93;2.72;;;13.50;99.90;;;;;;8411727;28;20036;-81
2023/09/27 19:03:57;;;;;;;5.85;3.10;;;13.40;99.90;;;;;;8381231;28;20070;-81
2023/09/27 19:07:58;;;;;;;4.38;3.30;;;13.40;99.90;;;;;;8374762;28;20030;-80
2023/09/27 19:11:58;;;;;;;5.45;3.28;;;13.30;99.90;;;;;;8391903;28;20029;-81
2023/09/27 19:15:59;;;;;;;5.57;3.28;;;13.30;99.90;;;;;;8372272;28;20031;-79
2023/09/27 19:19:59;;;;;;;5.15;3.22;;;13.20;99.90;;;;;;8395315;28;20112;-81
2023/09/27 19:24:00;;;;;;;4.32;2.95;;;13.10;99.90;;;;;;8396497;28;20397;-81
2023/09/27 19:28:02;;;;;;;4.13;2.97;;;13.10;99.90;;;;;;8393335;28;20084;-80
2023/09/27 19:32:03;;;;;;;5.75;3.80;;;13.00;99.90;;;;;;8379986;28;20076;-80
2023/09/27 19:36:04;;;;;;;4.65;3.10;;;13.10;99.90;;;;;;8397978;28;20534;-81
2023/09/27 19:40:06;;;;;;;4.10;3.03;;;13.00;99.90;;;;;;8384763;28;20029;-81
2023/09/27 19:44:06;;;;;;;4.30;3.50;;;12.80;99.90;;;;;;8369744;28;20481;-81
2023/09/27 19:48:07;;;;;;;4.10;3.22;;;12.70;99.90;;;;;;8400372;28;20062;-80
2023/09/27 19:52:07;;;;;;;5.82;3.45;;;12.60;99.90;;;;;;8377065;28;20032;-80
2023/09/27 19:56:08;;;;;;;5.88;3.55;;;12.70;99.90;;;;;;8407931;28;20024;-81
2023/09/27 20:00:13;;;;;;;4.75;3.20;;;12.60;99.90;;;;;;8378935;28;20025;-81
2023/09/27 20:04:14;;;;;;;4.40;3.63;;;12.40;99.90;;;;;;8367654;28;20024;-80
2023/09/27 20:08:14;;;;;;;6.88;4.20;;;12.30;99.90;;;;;;8369138;28;20097;-79
2023/09/27 20:12:15;;;;;;;4.70;3.72;;;12.20;99.90;;;;;;8371203;28;20250;-81
2023/09/27 20:16:15;;;;;;;4.88;3.80;;;12.20;99.90;;;;;;8378494;28;20036;-79
2023/09/27 20:20:16;;;;;;;5.40;4.38;;;12.10;99.90;;;;;;8398691;28;20028;-81
2023/09/27 20:24:16;;;;;;;6.85;4.68;;;12.20;99.90;;;;;;8399429;28;20028;-81
2023/09/27 20:28:17;;;;;;;4.70;4.20;;;12.10;99.90;;;;;;8383507;28;20097;-81
2023/09/27 20:32:19;;;;;;;7.43;4.07;;;12.00;99.90;;;;;;8376952;28;20032;-81
2023/09/27 20:36:20;;;;;;;4.40;3.60;;;11.90;99.90;;;;;;8398913;28;20017;-81
2023/09/27 20:40:20;;;;;;;4.60;3.85;;;11.80;99.90;;;;;;8383572;28;20028;-81
2023/09/27 20:44:21;;;;;;;5.72;3.90;;;11.80;99.90;;;;;;8380927;28;20051;-80
2023/09/27 20:48:22;;;;;;;6.25;4.10;;;11.70;99.90;;;;;;8398749;28;20036;-80
2023/09/27 20:52:22;;;;;;;4.60;3.63;;;11.60;99.90;;;;;;8378716;28;20036;-79
2023/09/27 20:56:23;;;;;;;6.15;4.03;;;11.50;99.90;;;;;;8378585;28;20044;-81